Arlee, Montana
Current Conditions -  °F | °C
As of 3:53 PM on Saturday 20 Dec 2014 (Local Time) from KMSO Reporting Station
Overcast Overcast  
Wind Chill: 31°   Ceiling: 5500
Heat Index: 31°   Visibility: 8mi
Dew Point: 30°   Wind: 3mph
Humidity: 96%   Direction: 310°NW
Pressure: 29.82"   Gusts: NA
Location:  47.16°N, 114.09°W
Report Text: KMSO 202253Z AUTO 31003KT 8SM BKN055 OVC070 M01/M01 A2982 RMK AO2 SLP130 T10061011 TSNO $
Loading
Personal Weather Stations






























Interactive Weather Map New forecast layout! Learn more

10-Day Weather Forecast

Advertisements
Track Severe Weather on mobile